sensor_id;sensor_type;location;lat;lon;timestamp;P1;durP1;ratioP1;P2;durP2;ratioP2
32297;SDS011;18782;48.984;8.548;2022-12-07T00:02:21;8.32;;;5.07;;
32297;SDS011;18782;48.984;8.548;2022-12-07T00:04:49;8.40;;;4.70;;
32297;SDS011;18782;48.984;8.548;2022-12-07T00:07:16;26.48;;;10.07;;
32297;SDS011;18782;48.984;8.548;2022-12-07T00:09:51;53.85;;;16.85;;
32297;SDS011;18782;48.984;8.548;2022-12-07T00:12:19;47.40;;;14.90;;
32297;SDS011;18782;48.984;8.548;2022-12-07T00:14:46;33.67;;;11.13;;
32297;SDS011;18782;48.984;8.548;2022-12-07T00:17:14;33.90;;;11.35;;
32297;SDS011;18782;48.984;8.548;2022-12-07T00:19:43;27.75;;;9.13;;
32297;SDS011;18782;48.984;8.548;2022-12-07T00:22:10;31.58;;;8.82;;
32297;SDS011;18782;48.984;8.548;2022-12-07T00:24:38;16.27;;;5.93;;
32297;SDS011;18782;48.984;8.548;2022-12-07T00:27:05;11.70;;;5.55;;
32297;SDS011;18782;48.984;8.548;2022-12-07T00:29:33;11.20;;;4.82;;
32297;SDS011;18782;48.984;8.548;2022-12-07T00:32:02;6.00;;;4.10;;
32297;SDS011;18782;48.984;8.548;2022-12-07T00:34:30;7.65;;;4.57;;
32297;SDS011;18782;48.984;8.548;2022-12-07T00:36:59;7.70;;;4.88;;
32297;SDS011;18782;48.984;8.548;2022-12-07T00:39:26;6.30;;;4.43;;
32297;SDS011;18782;48.984;8.548;2022-12-07T00:41:54;7.53;;;4.60;;
32297;SDS011;18782;48.984;8.548;2022-12-07T00:44:21;6.93;;;4.30;;
32297;SDS011;18782;48.984;8.548;2022-12-07T00:46:49;6.28;;;4.68;;
32297;SDS011;18782;48.984;8.548;2022-12-07T00:49:17;6.40;;;4.32;;
32297;SDS011;18782;48.984;8.548;2022-12-07T00:51:44;7.30;;;4.35;;
32297;SDS011;18782;48.984;8.548;2022-12-07T00:54:16;5.75;;;4.10;;
32297;SDS011;18782;48.984;8.548;2022-12-07T00:56:43;6.38;;;4.25;;
32297;SDS011;18782;48.984;8.548;2022-12-07T00:59:11;6.35;;;4.57;;
32297;SDS011;18782;48.984;8.548;2022-12-07T01:01:41;9.65;;;6.70;;
32297;SDS011;18782;48.984;8.548;2022-12-07T01:04:08;10.25;;;6.30;;
32297;SDS011;18782;48.984;8.548;2022-12-07T01:06:36;8.38;;;5.13;;
32297;SDS011;18782;48.984;8.548;2022-12-07T01:09:04;6.70;;;4.47;;
32297;SDS011;18782;48.984;8.548;2022-12-07T01:11:33;6.10;;;4.43;;
32297;SDS011;18782;48.984;8.548;2022-12-07T01:14:01;7.28;;;4.60;;
32297;SDS011;18782;48.984;8.548;2022-12-07T01:16:29;8.23;;;5.20;;
32297;SDS011;18782;48.984;8.548;2022-12-07T01:18:59;6.00;;;4.30;;
32297;SDS011;18782;48.984;8.548;2022-12-07T01:21:28;6.85;;;4.70;;
32297;SDS011;18782;48.984;8.548;2022-12-07T01:23:58;6.03;;;4.32;;
32297;SDS011;18782;48.984;8.548;2022-12-07T01:26:26;6.90;;;4.75;;
32297;SDS011;18782;48.984;8.548;2022-12-07T01:28:58;7.03;;;4.78;;
32297;SDS011;18782;48.984;8.548;2022-12-07T01:31:27;7.22;;;4.78;;
32297;SDS011;18782;48.984;8.548;2022-12-07T01:33:56;6.95;;;4.95;;
32297;SDS011;18782;48.984;8.548;2022-12-07T01:36:25;8.35;;;4.80;;
32297;SDS011;18782;48.984;8.548;2022-12-07T01:38:55;8.55;;;5.30;;
32297;SDS011;18782;48.984;8.548;2022-12-07T01:41:25;7.15;;;5.18;;
32297;SDS011;18782;48.984;8.548;2022-12-07T01:44:17;8.90;;;5.80;;
32297;SDS011;18782;48.984;8.548;2022-12-07T01:46:48;9.77;;;5.95;;
32297;SDS011;18782;48.984;8.548;2022-12-07T01:49:27;7.63;;;4.97;;
32297;SDS011;18782;48.984;8.548;2022-12-07T01:52:01;8.13;;;5.13;;
32297;SDS011;18782;48.984;8.548;2022-12-07T01:54:35;7.88;;;5.20;;
32297;SDS011;18782;48.984;8.548;2022-12-07T01:57:03;10.55;;;5.93;;
32297;SDS011;18782;48.984;8.548;2022-12-07T01:59:36;8.98;;;5.70;;
32297;SDS011;18782;48.984;8.548;2022-12-07T02:02:07;7.82;;;5.35;;
32297;SDS011;18782;48.984;8.548;2022-12-07T02:04:40;9.00;;;5.55;;
32297;SDS011;18782;48.984;8.548;2022-12-07T02:07:08;8.88;;;5.95;;
32297;SDS011;18782;48.984;8.548;2022-12-07T02:09:35;7.97;;;5.53;;
32297;SDS011;18782;48.984;8.548;2022-12-07T02:12:03;7.65;;;5.45;;
32297;SDS011;18782;48.984;8.548;2022-12-07T02:14:31;8.45;;;6.20;;
32297;SDS011;18782;48.984;8.548;2022-12-07T02:17:03;9.88;;;6.07;;
32297;SDS011;18782;48.984;8.548;2022-12-07T02:19:45;8.77;;;5.07;;
32297;SDS011;18782;48.984;8.548;2022-12-07T02:25:22;8.43;;;5.03;;
32297;SDS011;18782;48.984;8.548;2022-12-07T02:28:06;7.85;;;4.97;;
32297;SDS011;18782;48.984;8.548;2022-12-07T02:30:42;7.82;;;5.13;;
32297;SDS011;18782;48.984;8.548;2022-12-07T02:33:15;9.35;;;5.38;;
32297;SDS011;18782;48.984;8.548;2022-12-07T02:35:48;8.23;;;5.10;;
32297;SDS011;18782;48.984;8.548;2022-12-07T02:38:23;8.65;;;5.45;;
32297;SDS011;18782;48.984;8.548;2022-12-07T02:41:00;8.88;;;5.63;;
32297;SDS011;18782;48.984;8.548;2022-12-07T02:43:34;8.45;;;5.70;;
32297;SDS011;18782;48.984;8.548;2022-12-07T02:46:08;10.85;;;5.90;;
32297;SDS011;18782;48.984;8.548;2022-12-07T02:48:39;9.48;;;5.72;;
32297;SDS011;18782;48.984;8.548;2022-12-07T02:51:09;8.32;;;5.75;;
32297;SDS011;18782;48.984;8.548;2022-12-07T02:53:37;9.73;;;6.15;;
32297;SDS011;18782;48.984;8.548;2022-12-07T02:56:07;11.10;;;5.82;;
32297;SDS011;18782;48.984;8.548;2022-12-07T02:58:43;8.88;;;5.65;;
32297;SDS011;18782;48.984;8.548;2022-12-07T03:01:26;8.57;;;5.70;;
32297;SDS011;18782;48.984;8.548;2022-12-07T03:03:58;9.32;;;6.35;;
32297;SDS011;18782;48.984;8.548;2022-12-07T03:06:39;9.25;;;5.68;;
32297;SDS011;18782;48.984;8.548;2022-12-07T03:09:13;9.25;;;6.68;;
32297;SDS011;18782;48.984;8.548;2022-12-07T03:11:47;9.00;;;5.95;;
32297;SDS011;18782;48.984;8.548;2022-12-07T03:14:19;10.23;;;5.75;;
32297;SDS011;18782;48.984;8.548;2022-12-07T03:16:55;9.50;;;6.00;;
32297;SDS011;18782;48.984;8.548;2022-12-07T03:19:28;12.00;;;6.88;;
32297;SDS011;18782;48.984;8.548;2022-12-07T03:22:00;8.38;;;5.75;;
32297;SDS011;18782;48.984;8.548;2022-12-07T03:24:31;9.20;;;5.88;;
32297;SDS011;18782;48.984;8.548;2022-12-07T03:29:34;7.65;;;5.57;;
32297;SDS011;18782;48.984;8.548;2022-12-07T03:32:06;8.32;;;5.68;;
32297;SDS011;18782;48.984;8.548;2022-12-07T03:34:40;9.30;;;5.55;;
32297;SDS011;18782;48.984;8.548;2022-12-07T03:37:15;7.85;;;5.50;;
32297;SDS011;18782;48.984;8.548;2022-12-07T03:39:51;9.98;;;6.05;;
32297;SDS011;18782;48.984;8.548;2022-12-07T03:42:29;9.23;;;6.15;;
32297;SDS011;18782;48.984;8.548;2022-12-07T03:44:59;9.85;;;6.20;;
32297;SDS011;18782;48.984;8.548;2022-12-07T03:47:31;10.00;;;6.20;;
32297;SDS011;18782;48.984;8.548;2022-12-07T03:50:02;8.32;;;5.35;;
32297;SDS011;18782;48.984;8.548;2022-12-07T03:52:36;9.70;;;5.70;;
32297;SDS011;18782;48.984;8.548;2022-12-07T03:55:08;11.10;;;5.78;;
32297;SDS011;18782;48.984;8.548;2022-12-07T03:57:42;9.18;;;5.82;;
32297;SDS011;18782;48.984;8.548;2022-12-07T04:00:12;8.82;;;5.78;;
32297;SDS011;18782;48.984;8.548;2022-12-07T04:02:42;9.32;;;6.70;;
32297;SDS011;18782;48.984;8.548;2022-12-07T04:05:10;9.35;;;5.72;;
32297;SDS011;18782;48.984;8.548;2022-12-07T04:07:38;10.75;;;6.40;;
32297;SDS011;18782;48.984;8.548;2022-12-07T04:10:07;9.13;;;5.95;;
32297;SDS011;18782;48.984;8.548;2022-12-07T04:12:36;8.48;;;5.75;;
32297;SDS011;18782;48.984;8.548;2022-12-07T04:15:04;10.05;;;6.22;;
32297;SDS011;18782;48.984;8.548;2022-12-07T04:17:32;9.98;;;6.10;;
32297;SDS011;18782;48.984;8.548;2022-12-07T04:20:02;9.52;;;6.07;;
32297;SDS011;18782;48.984;8.548;2022-12-07T04:22:31;9.85;;;6.60;;
32297;SDS011;18782;48.984;8.548;2022-12-07T04:24:58;9.00;;;6.78;;
32297;SDS011;18782;48.984;8.548;2022-12-07T04:27:26;9.55;;;6.53;;
32297;SDS011;18782;48.984;8.548;2022-12-07T04:29:53;9.15;;;6.13;;
32297;SDS011;18782;48.984;8.548;2022-12-07T04:32:22;8.77;;;6.18;;
32297;SDS011;18782;48.984;8.548;2022-12-07T04:34:50;10.63;;;6.60;;
32297;SDS011;18782;48.984;8.548;2022-12-07T04:37:22;10.95;;;6.38;;
32297;SDS011;18782;48.984;8.548;2022-12-07T04:40:05;7.50;;;4.65;;
32297;SDS011;18782;48.984;8.548;2022-12-07T04:42:33;8.82;;;6.25;;
32297;SDS011;18782;48.984;8.548;2022-12-07T04:45:01;9.80;;;6.47;;
32297;SDS011;18782;48.984;8.548;2022-12-07T04:47:29;9.68;;;6.35;;
32297;SDS011;18782;48.984;8.548;2022-12-07T04:49:56;10.13;;;6.70;;
32297;SDS011;18782;48.984;8.548;2022-12-07T04:52:25;9.50;;;6.47;;
32297;SDS011;18782;48.984;8.548;2022-12-07T04:54:53;12.38;;;7.38;;
32297;SDS011;18782;48.984;8.548;2022-12-07T04:57:21;10.30;;;6.95;;
32297;SDS011;18782;48.984;8.548;2022-12-07T04:59:48;9.75;;;6.82;;
32297;SDS011;18782;48.984;8.548;2022-12-07T05:02:16;9.00;;;6.25;;
32297;SDS011;18782;48.984;8.548;2022-12-07T05:04:43;9.98;;;6.45;;
32297;SDS011;18782;48.984;8.548;2022-12-07T05:07:11;10.35;;;6.20;;
32297;SDS011;18782;48.984;8.548;2022-12-07T05:09:40;10.73;;;7.30;;
32297;SDS011;18782;48.984;8.548;2022-12-07T05:12:07;10.98;;;7.07;;
32297;SDS011;18782;48.984;8.548;2022-12-07T05:14:35;9.13;;;6.03;;
32297;SDS011;18782;48.984;8.548;2022-12-07T05:17:03;10.23;;;6.80;;
32297;SDS011;18782;48.984;8.548;2022-12-07T05:19:31;14.15;;;8.05;;
32297;SDS011;18782;48.984;8.548;2022-12-07T05:21:58;13.77;;;7.82;;
32297;SDS011;18782;48.984;8.548;2022-12-07T05:24:26;12.25;;;7.25;;
32297;SDS011;18782;48.984;8.548;2022-12-07T05:26:55;12.05;;;6.97;;
32297;SDS011;18782;48.984;8.548;2022-12-07T05:29:22;9.48;;;6.75;;
32297;SDS011;18782;48.984;8.548;2022-12-07T05:31:50;9.50;;;6.28;;
32297;SDS011;18782;48.984;8.548;2022-12-07T05:34:18;10.48;;;6.65;;
32297;SDS011;18782;48.984;8.548;2022-12-07T05:36:45;10.23;;;6.43;;
32297;SDS011;18782;48.984;8.548;2022-12-07T05:39:13;14.55;;;6.72;;
32297;SDS011;18782;48.984;8.548;2022-12-07T05:41:40;11.30;;;7.00;;
32297;SDS011;18782;48.984;8.548;2022-12-07T05:44:27;9.88;;;6.03;;
32297;SDS011;18782;48.984;8.548;2022-12-07T05:46:54;9.20;;;6.40;;
32297;SDS011;18782;48.984;8.548;2022-12-07T05:49:22;10.13;;;6.68;;
32297;SDS011;18782;48.984;8.548;2022-12-07T05:51:50;12.00;;;6.50;;
32297;SDS011;18782;48.984;8.548;2022-12-07T05:54:17;8.95;;;6.20;;
32297;SDS011;18782;48.984;8.548;2022-12-07T05:56:45;10.10;;;6.63;;
32297;SDS011;18782;48.984;8.548;2022-12-07T05:59:12;8.68;;;5.38;;
32297;SDS011;18782;48.984;8.548;2022-12-07T06:01:50;8.60;;;5.78;;
32297;SDS011;18782;48.984;8.548;2022-12-07T06:04:18;8.70;;;6.15;;
32297;SDS011;18782;48.984;8.548;2022-12-07T06:06:46;9.30;;;6.25;;
32297;SDS011;18782;48.984;8.548;2022-12-07T06:09:15;9.93;;;6.00;;
32297;SDS011;18782;48.984;8.548;2022-12-07T06:11:44;9.77;;;6.72;;
32297;SDS011;18782;48.984;8.548;2022-12-07T06:14:29;9.85;;;6.20;;
32297;SDS011;18782;48.984;8.548;2022-12-07T06:16:58;8.40;;;5.60;;
32297;SDS011;18782;48.984;8.548;2022-12-07T06:19:26;10.07;;;5.60;;
32297;SDS011;18782;48.984;8.548;2022-12-07T06:21:54;9.15;;;6.00;;
32297;SDS011;18782;48.984;8.548;2022-12-07T06:24:22;8.93;;;6.03;;
32297;SDS011;18782;48.984;8.548;2022-12-07T06:26:50;9.93;;;6.43;;
32297;SDS011;18782;48.984;8.548;2022-12-07T06:29:18;11.30;;;6.50;;
32297;SDS011;18782;48.984;8.548;2022-12-07T06:31:46;9.48;;;6.55;;
32297;SDS011;18782;48.984;8.548;2022-12-07T06:34:15;8.88;;;5.85;;
32297;SDS011;18782;48.984;8.548;2022-12-07T06:36:44;10.48;;;6.38;;
32297;SDS011;18782;48.984;8.548;2022-12-07T06:39:17;10.73;;;7.13;;
32297;SDS011;18782;48.984;8.548;2022-12-07T06:41:45;10.32;;;6.07;;
32297;SDS011;18782;48.984;8.548;2022-12-07T06:44:13;7.50;;;5.40;;
32297;SDS011;18782;48.984;8.548;2022-12-07T06:46:41;6.70;;;5.00;;
32297;SDS011;18782;48.984;8.548;2022-12-07T06:49:09;14.77;;;7.38;;
32297;SDS011;18782;48.984;8.548;2022-12-07T06:51:38;21.02;;;10.65;;
32297;SDS011;18782;48.984;8.548;2022-12-07T06:54:07;12.02;;;7.28;;
32297;SDS011;18782;48.984;8.548;2022-12-07T06:56:35;15.88;;;8.10;;
32297;SDS011;18782;48.984;8.548;2022-12-07T06:59:03;15.63;;;9.15;;
32297;SDS011;18782;48.984;8.548;2022-12-07T07:01:33;8.45;;;5.40;;
32297;SDS011;18782;48.984;8.548;2022-12-07T07:04:02;9.75;;;6.05;;
32297;SDS011;18782;48.984;8.548;2022-12-07T07:06:29;11.57;;;6.45;;
32297;SDS011;18782;48.984;8.548;2022-12-07T07:08:58;12.23;;;8.25;;
32297;SDS011;18782;48.984;8.548;2022-12-07T07:11:26;11.73;;;7.88;;
32297;SDS011;18782;48.984;8.548;2022-12-07T07:13:54;11.18;;;7.63;;
32297;SDS011;18782;48.984;8.548;2022-12-07T07:16:23;9.10;;;6.32;;
32297;SDS011;18782;48.984;8.548;2022-12-07T07:18:51;8.75;;;5.30;;
32297;SDS011;18782;48.984;8.548;2022-12-07T07:21:18;10.13;;;5.78;;
32297;SDS011;18782;48.984;8.548;2022-12-07T07:23:46;6.53;;;4.97;;
32297;SDS011;18782;48.984;8.548;2022-12-07T07:26:15;7.75;;;4.95;;
32297;SDS011;18782;48.984;8.548;2022-12-07T07:28:48;8.15;;;4.65;;
32297;SDS011;18782;48.984;8.548;2022-12-07T07:31:16;7.47;;;4.47;;
32297;SDS011;18782;48.984;8.548;2022-12-07T07:33:44;13.63;;;6.68;;
32297;SDS011;18782;48.984;8.548;2022-12-07T07:36:12;14.43;;;8.93;;
32297;SDS011;18782;48.984;8.548;2022-12-07T07:38:40;12.95;;;8.45;;
32297;SDS011;18782;48.984;8.548;2022-12-07T07:41:07;13.20;;;8.55;;
32297;SDS011;18782;48.984;8.548;2022-12-07T07:43:36;8.55;;;5.85;;
32297;SDS011;18782;48.984;8.548;2022-12-07T07:46:04;7.95;;;4.95;;
32297;SDS011;18782;48.984;8.548;2022-12-07T07:48:31;8.10;;;5.15;;
32297;SDS011;18782;48.984;8.548;2022-12-07T07:50:59;7.53;;;5.38;;
32297;SDS011;18782;48.984;8.548;2022-12-07T07:53:26;10.35;;;5.05;;
32297;SDS011;18782;48.984;8.548;2022-12-07T07:55:54;10.68;;;5.43;;
32297;SDS011;18782;48.984;8.548;2022-12-07T07:58:22;7.97;;;5.13;;
32297;SDS011;18782;48.984;8.548;2022-12-07T08:00:51;9.68;;;5.78;;
32297;SDS011;18782;48.984;8.548;2022-12-07T08:03:19;6.65;;;4.78;;
32297;SDS011;18782;48.984;8.548;2022-12-07T08:05:47;7.53;;;4.57;;
32297;SDS011;18782;48.984;8.548;2022-12-07T08:08:15;7.07;;;4.68;;
32297;SDS011;18782;48.984;8.548;2022-12-07T08:10:42;9.65;;;4.80;;
32297;SDS011;18782;48.984;8.548;2022-12-07T08:13:10;8.68;;;4.70;;
32297;SDS011;18782;48.984;8.548;2022-12-07T08:15:38;8.18;;;5.45;;
32297;SDS011;18782;48.984;8.548;2022-12-07T08:18:08;8.00;;;5.35;;
32297;SDS011;18782;48.984;8.548;2022-12-07T08:20:35;15.48;;;9.70;;
32297;SDS011;18782;48.984;8.548;2022-12-07T08:23:05;9.43;;;6.10;;
32297;SDS011;18782;48.984;8.548;2022-12-07T08:25:33;11.00;;;5.93;;
32297;SDS011;18782;48.984;8.548;2022-12-07T08:28:01;8.95;;;5.15;;
32297;SDS011;18782;48.984;8.548;2022-12-07T08:30:29;12.18;;;7.18;;
32297;SDS011;18782;48.984;8.548;2022-12-07T08:32:57;12.20;;;7.07;;
32297;SDS011;18782;48.984;8.548;2022-12-07T08:35:26;8.38;;;5.53;;
32297;SDS011;18782;48.984;8.548;2022-12-07T08:37:53;9.73;;;5.68;;
32297;SDS011;18782;48.984;8.548;2022-12-07T08:40:23;9.30;;;6.00;;
32297;SDS011;18782;48.984;8.548;2022-12-07T08:42:51;10.40;;;5.90;;
32297;SDS011;18782;48.984;8.548;2022-12-07T08:45:19;9.52;;;5.20;;
32297;SDS011;18782;48.984;8.548;2022-12-07T08:47:53;8.43;;;5.13;;
32297;SDS011;18782;48.984;8.548;2022-12-07T08:50:25;7.55;;;4.93;;
32297;SDS011;18782;48.984;8.548;2022-12-07T08:52:54;11.32;;;6.30;;
32297;SDS011;18782;48.984;8.548;2022-12-07T08:55:24;9.77;;;5.07;;
32297;SDS011;18782;48.984;8.548;2022-12-07T08:57:53;9.73;;;5.43;;
32297;SDS011;18782;48.984;8.548;2022-12-07T09:00:21;10.63;;;6.03;;
32297;SDS011;18782;48.984;8.548;2022-12-07T09:02:49;11.95;;;6.32;;
32297;SDS011;18782;48.984;8.548;2022-12-07T09:05:16;7.43;;;4.60;;
32297;SDS011;18782;48.984;8.548;2022-12-07T09:07:46;6.70;;;4.38;;
32297;SDS011;18782;48.984;8.548;2022-12-07T09:10:17;6.85;;;3.50;;
32297;SDS011;18782;48.984;8.548;2022-12-07T09:12:45;8.13;;;5.28;;
32297;SDS011;18782;48.984;8.548;2022-12-07T09:15:12;10.13;;;4.43;;
32297;SDS011;18782;48.984;8.548;2022-12-07T09:17:40;6.70;;;4.55;;
32297;SDS011;18782;48.984;8.548;2022-12-07T09:20:08;7.30;;;3.88;;
32297;SDS011;18782;48.984;8.548;2022-12-07T09:22:36;7.53;;;5.10;;
32297;SDS011;18782;48.984;8.548;2022-12-07T09:25:05;9.15;;;5.65;;
32297;SDS011;18782;48.984;8.548;2022-12-07T09:27:33;8.52;;;5.28;;
32297;SDS011;18782;48.984;8.548;2022-12-07T09:30:02;9.15;;;5.38;;
32297;SDS011;18782;48.984;8.548;2022-12-07T09:32:30;7.68;;;4.95;;
32297;SDS011;18782;48.984;8.548;2022-12-07T09:34:58;10.18;;;5.65;;
32297;SDS011;18782;48.984;8.548;2022-12-07T09:37:25;10.38;;;6.45;;
32297;SDS011;18782;48.984;8.548;2022-12-07T09:39:53;8.65;;;5.40;;
32297;SDS011;18782;48.984;8.548;2022-12-07T09:42:26;9.80;;;5.80;;
32297;SDS011;18782;48.984;8.548;2022-12-07T09:44:56;7.35;;;5.03;;
32297;SDS011;18782;48.984;8.548;2022-12-07T09:47:26;14.15;;;8.85;;
32297;SDS011;18782;48.984;8.548;2022-12-07T09:49:55;9.30;;;5.60;;
32297;SDS011;18782;48.984;8.548;2022-12-07T09:52:30;13.93;;;7.00;;
32297;SDS011;18782;48.984;8.548;2022-12-07T09:55:07;9.98;;;6.28;;
32297;SDS011;18782;48.984;8.548;2022-12-07T09:57:38;10.18;;;6.20;;
32297;SDS011;18782;48.984;8.548;2022-12-07T10:00:09;8.80;;;5.95;;
32297;SDS011;18782;48.984;8.548;2022-12-07T10:02:42;9.82;;;5.82;;
32297;SDS011;18782;48.984;8.548;2022-12-07T10:05:12;9.23;;;5.90;;
32297;SDS011;18782;48.984;8.548;2022-12-07T10:07:49;8.15;;;5.30;;
32297;SDS011;18782;48.984;8.548;2022-12-07T10:10:18;9.18;;;5.75;;
32297;SDS011;18782;48.984;8.548;2022-12-07T10:12:55;8.95;;;5.55;;
32297;SDS011;18782;48.984;8.548;2022-12-07T10:15:40;8.93;;;5.60;;
32297;SDS011;18782;48.984;8.548;2022-12-07T10:18:17;8.77;;;5.18;;
32297;SDS011;18782;48.984;8.548;2022-12-07T10:21:10;8.05;;;5.13;;
32297;SDS011;18782;48.984;8.548;2022-12-07T10:23:40;8.23;;;4.85;;
32297;SDS011;18782;48.984;8.548;2022-12-07T10:26:19;9.35;;;5.03;;
32297;SDS011;18782;48.984;8.548;2022-12-07T10:28:50;9.00;;;4.90;;
32297;SDS011;18782;48.984;8.548;2022-12-07T10:31:18;9.68;;;6.18;;
32297;SDS011;18782;48.984;8.548;2022-12-07T10:33:49;8.85;;;5.20;;
32297;SDS011;18782;48.984;8.548;2022-12-07T10:36:19;8.30;;;5.10;;
32297;SDS011;18782;48.984;8.548;2022-12-07T10:38:51;7.78;;;4.82;;
32297;SDS011;18782;48.984;8.548;2022-12-07T10:41:25;8.65;;;5.10;;
32297;SDS011;18782;48.984;8.548;2022-12-07T10:43:55;7.78;;;4.60;;
32297;SDS011;18782;48.984;8.548;2022-12-07T10:49:31;9.20;;;5.30;;
32297;SDS011;18782;48.984;8.548;2022-12-07T10:52:11;9.45;;;5.55;;
32297;SDS011;18782;48.984;8.548;2022-12-07T10:54:48;9.25;;;5.78;;
32297;SDS011;18782;48.984;8.548;2022-12-07T10:57:29;7.45;;;4.68;;
32297;SDS011;18782;48.984;8.548;2022-12-07T11:00:13;7.78;;;4.93;;
32297;SDS011;18782;48.984;8.548;2022-12-07T11:02:51;7.88;;;5.15;;
32297;SDS011;18782;48.984;8.548;2022-12-07T11:05:38;8.85;;;5.22;;
32297;SDS011;18782;48.984;8.548;2022-12-07T11:08:13;9.35;;;5.10;;
32297;SDS011;18782;48.984;8.548;2022-12-07T11:10:50;12.32;;;6.28;;
32297;SDS011;18782;48.984;8.548;2022-12-07T11:13:23;9.65;;;5.43;;
32297;SDS011;18782;48.984;8.548;2022-12-07T11:16:01;8.43;;;5.22;;
32297;SDS011;18782;48.984;8.548;2022-12-07T11:18:41;8.70;;;5.90;;
32297;SDS011;18782;48.984;8.548;2022-12-07T11:21:17;10.70;;;6.93;;
32297;SDS011;18782;48.984;8.548;2022-12-07T11:23:52;10.43;;;6.47;;
32297;SDS011;18782;48.984;8.548;2022-12-07T11:26:32;10.82;;;6.03;;
32297;SDS011;18782;48.984;8.548;2022-12-07T11:29:15;10.20;;;6.22;;
32297;SDS011;18782;48.984;8.548;2022-12-07T11:32:00;10.38;;;6.00;;
32297;SDS011;18782;48.984;8.548;2022-12-07T11:34:39;11.02;;;5.78;;
32297;SDS011;18782;48.984;8.548;2022-12-07T11:37:17;9.82;;;6.32;;
32297;SDS011;18782;48.984;8.548;2022-12-07T11:39:49;10.20;;;6.60;;
32297;SDS011;18782;48.984;8.548;2022-12-07T11:42:20;10.50;;;6.38;;
32297;SDS011;18782;48.984;8.548;2022-12-07T11:44:50;10.32;;;6.30;;
32297;SDS011;18782;48.984;8.548;2022-12-07T11:47:25;10.45;;;6.43;;
32297;SDS011;18782;48.984;8.548;2022-12-07T11:50:01;10.15;;;6.18;;
32297;SDS011;18782;48.984;8.548;2022-12-07T11:52:40;11.15;;;6.20;;
32297;SDS011;18782;48.984;8.548;2022-12-07T11:55:17;11.30;;;6.20;;
32297;SDS011;18782;48.984;8.548;2022-12-07T11:57:50;9.38;;;6.20;;
32297;SDS011;18782;48.984;8.548;2022-12-07T12:00:23;11.80;;;6.20;;
32297;SDS011;18782;48.984;8.548;2022-12-07T12:02:53;10.88;;;6.05;;
32297;SDS011;18782;48.984;8.548;2022-12-07T12:05:26;9.93;;;5.85;;
32297;SDS011;18782;48.984;8.548;2022-12-07T12:08:02;11.10;;;6.25;;
32297;SDS011;18782;48.984;8.548;2022-12-07T12:11:01;11.57;;;6.38;;
32297;SDS011;18782;48.984;8.548;2022-12-07T12:19:58;12.10;;;6.78;;
32297;SDS011;18782;48.984;8.548;2022-12-07T12:22:32;10.68;;;6.35;;
32297;SDS011;18782;48.984;8.548;2022-12-07T12:25:04;10.77;;;6.88;;
32297;SDS011;18782;48.984;8.548;2022-12-07T12:27:34;13.75;;;7.75;;
32297;SDS011;18782;48.984;8.548;2022-12-07T12:30:06;11.88;;;6.93;;
32297;SDS011;18782;48.984;8.548;2022-12-07T12:32:51;13.60;;;7.40;;
32297;SDS011;18782;48.984;8.548;2022-12-07T12:35:30;11.07;;;6.93;;
32297;SDS011;18782;48.984;8.548;2022-12-07T12:43:49;11.70;;;6.43;;
32297;SDS011;18782;48.984;8.548;2022-12-07T12:46:38;11.50;;;6.93;;
32297;SDS011;18782;48.984;8.548;2022-12-07T12:49:30;10.68;;;6.70;;
32297;SDS011;18782;48.984;8.548;2022-12-07T12:55:13;10.55;;;6.97;;
32297;SDS011;18782;48.984;8.548;2022-12-07T12:57:47;13.93;;;7.80;;
32297;SDS011;18782;48.984;8.548;2022-12-07T13:00:40;8.77;;;5.20;;
32297;SDS011;18782;48.984;8.548;2022-12-07T13:03:16;10.50;;;6.90;;
32297;SDS011;18782;48.984;8.548;2022-12-07T13:05:49;13.18;;;7.50;;
32297;SDS011;18782;48.984;8.548;2022-12-07T13:08:46;16.02;;;7.97;;
32297;SDS011;18782;48.984;8.548;2022-12-07T13:11:18;13.50;;;8.20;;
32297;SDS011;18782;48.984;8.548;2022-12-07T13:13:57;15.43;;;7.95;;
32297;SDS011;18782;48.984;8.548;2022-12-07T13:17:01;13.18;;;8.45;;
32297;SDS011;18782;48.984;8.548;2022-12-07T13:27:57;9.60;;;6.20;;
32297;SDS011;18782;48.984;8.548;2022-12-07T13:30:28;10.77;;;6.90;;
32297;SDS011;18782;48.984;8.548;2022-12-07T13:32:58;12.20;;;6.70;;
32297;SDS011;18782;48.984;8.548;2022-12-07T13:35:30;9.90;;;6.50;;
32297;SDS011;18782;48.984;8.548;2022-12-07T13:37:59;11.88;;;7.50;;
32297;SDS011;18782;48.984;8.548;2022-12-07T13:40:30;12.38;;;7.00;;
32297;SDS011;18782;48.984;8.548;2022-12-07T13:42:58;11.90;;;7.60;;
32297;SDS011;18782;48.984;8.548;2022-12-07T13:45:28;11.38;;;7.43;;
32297;SDS011;18782;48.984;8.548;2022-12-07T13:48:18;15.18;;;7.38;;
32297;SDS011;18782;48.984;8.548;2022-12-07T13:50:52;12.35;;;7.38;;
32297;SDS011;18782;48.984;8.548;2022-12-07T13:53:20;13.13;;;7.25;;
32297;SDS011;18782;48.984;8.548;2022-12-07T13:55:48;12.40;;;7.28;;
32297;SDS011;18782;48.984;8.548;2022-12-07T13:58:20;11.75;;;7.15;;
32297;SDS011;18782;48.984;8.548;2022-12-07T14:00:48;12.10;;;7.00;;
32297;SDS011;18782;48.984;8.548;2022-12-07T14:03:25;13.43;;;7.53;;
32297;SDS011;18782;48.984;8.548;2022-12-07T14:06:03;13.65;;;7.40;;
32297;SDS011;18782;48.984;8.548;2022-12-07T14:09:08;11.63;;;7.20;;
32297;SDS011;18782;48.984;8.548;2022-12-07T14:11:43;13.85;;;8.18;;
32297;SDS011;18782;48.984;8.548;2022-12-07T14:14:14;13.98;;;7.78;;
32297;SDS011;18782;48.984;8.548;2022-12-07T14:16:54;12.40;;;7.63;;
32297;SDS011;18782;48.984;8.548;2022-12-07T14:19:45;15.05;;;8.45;;
32297;SDS011;18782;48.984;8.548;2022-12-07T14:22:19;14.35;;;8.38;;
32297;SDS011;18782;48.984;8.548;2022-12-07T14:24:59;13.30;;;8.32;;
32297;SDS011;18782;48.984;8.548;2022-12-07T14:27:30;13.32;;;8.05;;
32297;SDS011;18782;48.984;8.548;2022-12-07T14:30:00;12.70;;;8.27;;
32297;SDS011;18782;48.984;8.548;2022-12-07T14:32:29;14.57;;;8.05;;
32297;SDS011;18782;48.984;8.548;2022-12-07T14:35:00;16.73;;;10.73;;
32297;SDS011;18782;48.984;8.548;2022-12-07T14:37:29;17.20;;;11.32;;
32297;SDS011;18782;48.984;8.548;2022-12-07T14:39:57;12.55;;;8.63;;
32297;SDS011;18782;48.984;8.548;2022-12-07T14:42:27;13.45;;;7.90;;
32297;SDS011;18782;48.984;8.548;2022-12-07T14:44:57;12.57;;;8.07;;
32297;SDS011;18782;48.984;8.548;2022-12-07T14:47:26;11.57;;;7.35;;
32297;SDS011;18782;48.984;8.548;2022-12-07T14:50:16;11.10;;;7.07;;
32297;SDS011;18782;48.984;8.548;2022-12-07T14:52:46;10.82;;;6.88;;
32297;SDS011;18782;48.984;8.548;2022-12-07T14:55:37;11.88;;;7.15;;
32297;SDS011;18782;48.984;8.548;2022-12-07T14:58:04;13.98;;;7.47;;
32297;SDS011;18782;48.984;8.548;2022-12-07T15:00:32;15.02;;;8.63;;
32297;SDS011;18782;48.984;8.548;2022-12-07T15:03:00;14.45;;;8.20;;
32297;SDS011;18782;48.984;8.548;2022-12-07T15:05:29;12.55;;;8.15;;
32297;SDS011;18782;48.984;8.548;2022-12-07T15:07:56;10.25;;;6.97;;
32297;SDS011;18782;48.984;8.548;2022-12-07T15:10:25;13.85;;;7.97;;
32297;SDS011;18782;48.984;8.548;2022-12-07T15:12:55;12.48;;;7.40;;
32297;SDS011;18782;48.984;8.548;2022-12-07T15:15:44;12.40;;;7.40;;
32297;SDS011;18782;48.984;8.548;2022-12-07T15:18:12;14.60;;;8.90;;
32297;SDS011;18782;48.984;8.548;2022-12-07T15:20:41;11.15;;;7.55;;
32297;SDS011;18782;48.984;8.548;2022-12-07T15:23:09;10.90;;;7.05;;
32297;SDS011;18782;48.984;8.548;2022-12-07T15:25:36;11.07;;;6.82;;
32297;SDS011;18782;48.984;8.548;2022-12-07T15:28:07;10.43;;;6.53;;
32297;SDS011;18782;48.984;8.548;2022-12-07T15:30:36;11.10;;;7.40;;
32297;SDS011;18782;48.984;8.548;2022-12-07T15:33:04;10.02;;;6.35;;
32297;SDS011;18782;48.984;8.548;2022-12-07T15:35:32;13.05;;;7.78;;
32297;SDS011;18782;48.984;8.548;2022-12-07T15:38:00;11.57;;;7.28;;
32297;SDS011;18782;48.984;8.548;2022-12-07T15:40:29;10.07;;;6.70;;